Welcome to Trans World Virtual Airlines!

Welcome TWVA's Newest Pilot:

TWA2313 Bryan Heald

Not a Trans World pilot yet?
Apply Now!




Sign-in with your pilot id or email, or register

Flight TWA341

  • Submitted By: Austin Hill
  • Departure Airport: Hartsfield - Jackson Atlanta International Airport (KATL)
  • Arrival Airport: Lambert-Saint Louis International Airport (KSTL)
  • Aircraft: B717-200 (N401TW)
  • Flight Time: 01.52
  • Date Submitted: 07/03/2018
  • Route: ATL J45 BNA J45 STL
  • Status: Accepted
Flight Details
Gross Revenue:
(105 load / $ 195.00 per unit
$ 20, 475.00
Fuel Cost:
(7296 fuel used @ 0.8 / unit)
$ 5, 836.80

Additional Log Information:

View Log

FS[16:15] Aircraft Title - Pf2k B717-200 Paint7
FS[16:15] Aircraft Model - B717
FS[16:15] Flight Number TWA341
FS[16:15] Departure KATL
FS[16:15] Destination KSTL
FS[16:15] Boarding
FS[16:24] Pushing Back
FS[16:28] Taxiing to Runway
FS[16:32] Taking Off
FS[16:33] Taking Off
FS[16:33] 176kts
FS[16:33] pitch angle 9 degrees
FS[16:33] 21795 (lbs) of fuel onboard
FS[16:33] Climbing
FS[16:50] TOC Reached
FS[16:50] Cruise 34000
FS[17:13] TOD Reached
FS[17:13] Descending
FS[17:28] On Approach
FS[17:49] Landing Rate -100fpm
FS[17:49] 15504 (lbs) of fuel onboard
FS[17:49] pitch angle 3 degrees
FS[17:50] Taxiing to Gate
FS[17:55] Arrived
FS[18:06] Max Sim Rate: 1x
FS[18:06] kACARS_Free Version 1.0.1.1

Comments

Commenter Comment
Austin Hill KATL 031613Z 12506KT 10SM FEW034 FEW149 31/27 A3018 // KSTL 031727Z 11206KT 10SM SCT034 32/24 A3007

Route Map